Time;durP1;ratioP1;P1;durP2;ratioP2;P2;SDS_P1;SDS_P2;PMS_P1;PMS_P2;Temp;Humidity;BMP_temperature;BMP_pressure;BME280_temperature;BME280_humidity;BME280_pressure;Samples;Min_cycle;Max_cycle;Signal;HPM_P1;HPM_P2
2023/01/22 00:02:20;;;;;;;18.00;16.10;;;;;;;;;;5072705;28;20380;-83
2023/01/22 00:04:46;;;;;;;19.98;17.15;;;;;;;;;;5055253;28;20823;-84
2023/01/22 00:07:14;;;;;;;18.13;15.60;;;;;;;;;;5071723;28;20393;-84
2023/01/22 00:09:40;;;;;;;17.60;15.65;;;;;;;;;;5067377;28;20379;-84
2023/01/22 00:12:06;;;;;;;17.65;15.60;;;;;;;;;;5070789;28;20376;-84
2023/01/22 00:14:32;;;;;;;15.10;13.50;;;;;;;;;;5074741;28;20560;-84
2023/01/22 00:16:58;;;;;;;14.30;12.90;;;;;;;;;;5074744;28;20384;-84
2023/01/22 00:19:24;;;;;;;14.33;12.93;;;;;;;;;;5055598;28;20404;-84
2023/01/22 00:21:50;;;;;;;12.57;11.38;;;;;;;;;;5074386;28;20389;-84
2023/01/22 00:24:16;;;;;;;12.93;11.63;;;;;;;;;;5074197;28;20523;-84
2023/01/22 00:26:42;;;;;;;12.05;10.95;;;;;;;;;;5074245;28;20372;-84
2023/01/22 00:29:08;;;;;;;12.32;11.13;;;;;;;;;;5073984;28;20421;-84
2023/01/22 00:31:36;;;;;;;12.02;11.02;;;;;;;;;;5074340;28;20428;-84
2023/01/22 00:34:02;;;;;;;14.35;12.95;;;;;;;;;;5073982;28;20421;-84
2023/01/22 00:36:28;;;;;;;16.13;14.52;;;;;;;;;;5074009;28;20469;-84
2023/01/22 00:38:54;;;;;;;17.65;15.85;;;;;;;;;;5073967;28;20399;-84
2023/01/22 00:41:20;;;;;;;13.60;12.25;;;;;;;;;;5074074;28;20376;-84
2023/01/22 00:43:46;;;;;;;14.95;13.45;;;;;;;;;;5073607;28;20376;-84
2023/01/22 00:46:13;;;;;;;13.25;11.98;;;;;;;;;;5073897;28;20478;-84
2023/01/22 00:48:40;;;;;;;13.38;12.18;;;;;;;;;;5073779;28;20402;-84
2023/01/22 00:51:11;;;;;;;12.93;11.70;;;;;;;;;;5073819;28;20732;-84
2023/01/22 00:53:40;;;;;;;12.88;11.68;;;;;;;;;;5073975;28;20368;-84
2023/01/22 00:56:06;;;;;;;12.82;11.52;;;;;;;;;;5073758;28;20387;-84
2023/01/22 00:58:32;;;;;;;13.10;11.90;;;;;;;;;;5074051;28;20379;-84
2023/01/22 01:01:00;;;;;;;12.65;11.45;;;;;;;;;;5065200;28;20837;-84
2023/01/22 01:03:26;;;;;;;12.57;11.43;;;;;;;;;;5073372;28;20368;-84
2023/01/22 01:05:53;;;;;;;11.85;10.75;;;;;;;;;;5073256;28;20399;-84
2023/01/22 01:08:19;;;;;;;11.98;10.88;;;;;;;;;;5073456;28;20387;-84
2023/01/22 01:10:45;;;;;;;12.55;11.35;;;;;;;;;;5076115;28;20384;-84
2023/01/22 01:13:11;;;;;;;12.88;11.77;;;;;;;;;;5074851;28;20380;-84
2023/01/22 01:15:37;;;;;;;13.25;11.95;;;;;;;;;;5073032;28;20459;-84
2023/01/22 01:18:04;;;;;;;13.88;12.57;;;;;;;;;;5073316;28;20434;-84
2023/01/22 01:20:30;;;;;;;13.50;12.30;;;;;;;;;;5073219;28;20808;-84
2023/01/22 01:22:56;;;;;;;15.23;13.73;;;;;;;;;;5078995;28;20370;-84
2023/01/22 01:25:22;;;;;;;14.68;13.23;;;;;;;;;;5069470;28;20400;-84
2023/01/22 01:27:48;;;;;;;14.50;13.10;;;;;;;;;;5071299;28;20372;-84
2023/01/22 01:30:15;;;;;;;14.10;12.75;;;;;;;;;;5078330;28;20387;-84
2023/01/22 01:32:41;;;;;;;14.30;12.90;;;;;;;;;;5085570;28;20379;-84
2023/01/22 01:35:07;;;;;;;13.37;12.17;;;;;;;;;;5066939;28;20413;-84
2023/01/22 01:37:33;;;;;;;14.32;12.93;;;;;;;;;;5089988;28;20407;-82
2023/01/22 01:39:59;;;;;;;13.95;12.55;;;;;;;;;;5090580;28;20438;-83
2023/01/22 01:42:27;;;;;;;13.80;12.48;;;;;;;;;;5079678;28;20400;-84
2023/01/22 01:45:12;;;;;;;13.67;12.27;;;;;;;;;;5073878;28;20408;-84
2023/01/22 01:47:38;;;;;;;14.68;13.20;;;;;;;;;;5073189;28;20375;-84
2023/01/22 01:50:05;;;;;;;14.45;13.05;;;;;;;;;;5055250;28;20769;-84
2023/01/22 01:52:31;;;;;;;13.15;11.95;;;;;;;;;;5072953;28;20489;-84
2023/01/22 01:54:57;;;;;;;13.83;12.50;;;;;;;;;;5072377;28;20387;-84
2023/01/22 01:57:28;;;;;;;13.15;11.95;;;;;;;;;;5072932;28;20428;-84
2023/01/22 01:59:55;;;;;;;13.65;12.35;;;;;;;;;;5063772;28;20481;-83
2023/01/22 02:02:21;;;;;;;13.10;11.90;;;;;;;;;;5072574;28;20406;-84
2023/01/22 02:04:48;;;;;;;13.38;12.18;;;;;;;;;;5054294;28;20404;-84
2023/01/22 02:07:14;;;;;;;13.63;12.35;;;;;;;;;;5072468;28;20407;-84
2023/01/22 02:09:40;;;;;;;13.57;12.27;;;;;;;;;;5069306;28;20853;-84
2023/01/22 02:12:06;;;;;;;13.50;12.20;;;;;;;;;;5054735;28;20387;-84
2023/01/22 02:14:34;;;;;;;13.25;12.02;;;;;;;;;;5072547;28;20375;-84
2023/01/22 02:17:06;;;;;;;14.02;12.73;;;;;;;;;;5069533;28;20392;-83
2023/01/22 02:19:32;;;;;;;13.73;12.45;;;;;;;;;;5072287;28;20484;-84
2023/01/22 02:21:58;;;;;;;14.20;12.80;;;;;;;;;;5073042;28;20380;-84
2023/01/22 02:24:24;;;;;;;14.60;13.23;;;;;;;;;;5070899;28;20436;-84
2023/01/22 02:26:50;;;;;;;14.20;12.80;;;;;;;;;;5063784;28;20469;-84
2023/01/22 02:29:16;;;;;;;14.55;13.05;;;;;;;;;;5072332;28;20458;-84
2023/01/22 02:31:42;;;;;;;13.83;12.50;;;;;;;;;;5054789;28;20903;-84
2023/01/22 02:34:09;;;;;;;14.73;13.32;;;;;;;;;;5071924;28;20444;-84
2023/01/22 02:36:36;;;;;;;14.32;12.82;;;;;;;;;;5054261;28;20757;-84
2023/01/22 02:39:02;;;;;;;12.68;11.55;;;;;;;;;;5054477;28;20404;-84
2023/01/22 02:41:28;;;;;;;14.25;12.85;;;;;;;;;;5072241;28;20403;-84
2023/01/22 02:43:54;;;;;;;13.40;12.15;;;;;;;;;;5072291;28;20445;-84
2023/01/22 02:46:20;;;;;;;14.60;13.20;;;;;;;;;;5054293;28;20407;-84
2023/01/22 02:48:47;;;;;;;13.95;12.60;;;;;;;;;;5072165;28;20474;-84
2023/01/22 02:51:13;;;;;;;14.57;13.18;;;;;;;;;;5072048;28;20446;-84
2023/01/22 02:53:39;;;;;;;14.57;13.07;;;;;;;;;;5055751;28;20839;-84
2023/01/22 02:56:05;;;;;;;14.05;12.65;;;;;;;;;;5076246;28;20604;-84
2023/01/22 02:58:32;;;;;;;14.18;12.85;;;;;;;;;;5075974;28;20376;-84
2023/01/22 03:01:06;;;;;;;14.65;13.30;;;;;;;;;;5064403;28;20407;-84
2023/01/22 03:03:32;;;;;;;14.30;13.00;;;;;;;;;;5068366;28;20406;-84
2023/01/22 03:05:58;;;;;;;14.48;13.07;;;;;;;;;;5064383;28;20494;-84
2023/01/22 03:08:25;;;;;;;14.57;13.15;;;;;;;;;;5054076;28;20399;-84
2023/01/22 03:10:56;;;;;;;15.35;13.85;;;;;;;;;;5074958;28;20379;-84
2023/01/22 03:21:42;;;;;;;14.57;13.07;;;;;;;;;;5077765;28;21019;-85
2023/01/22 03:24:08;;;;;;;13.90;12.60;;;;;;;;;;5055974;28;20478;-84
2023/01/22 03:26:35;;;;;;;14.73;13.30;;;;;;;;;;5073774;28;20548;-84
2023/01/22 03:29:03;;;;;;;14.53;13.17;;;;;;;;;;5074387;28;20387;-83
2023/01/22 03:31:29;;;;;;;14.17;12.87;;;;;;;;;;5071253;28;20383;-84
2023/01/22 03:33:55;;;;;;;15.55;14.00;;;;;;;;;;5073976;28;20873;-83
2023/01/22 03:36:21;;;;;;;14.40;13.00;;;;;;;;;;5055805;28;20391;-85
2023/01/22 03:38:50;;;;;;;15.23;13.73;;;;;;;;;;5074069;28;20441;-84
2023/01/22 03:41:17;;;;;;;14.82;13.32;;;;;;;;;;5055956;28;20441;-84
2023/01/22 03:43:43;;;;;;;13.95;12.65;;;;;;;;;;5073805;28;20375;-84
2023/01/22 03:46:16;;;;;;;14.20;12.90;;;;;;;;;;5074093;28;20387;-84
2023/01/22 03:48:43;;;;;;;13.75;12.45;;;;;;;;;;5056098;28;20875;-83
2023/01/22 03:51:10;;;;;;;13.48;12.10;;;;;;;;;;5073416;28;20384;-84
2023/01/22 03:53:36;;;;;;;13.85;12.65;;;;;;;;;;5074217;28;20872;-84
2023/01/22 03:56:04;;;;;;;13.07;11.77;;;;;;;;;;5074281;28;20897;-84
2023/01/22 03:58:31;;;;;;;13.43;12.25;;;;;;;;;;5074948;28;20380;-84
2023/01/22 04:00:59;;;;;;;14.38;13.10;;;;;;;;;;5065461;28;20400;-85
2023/01/22 04:03:26;;;;;;;14.40;13.00;;;;;;;;;;5054812;28;20396;-84
2023/01/22 04:05:52;;;;;;;14.88;13.32;;;;;;;;;;5073683;28;20403;-84
2023/01/22 04:08:18;;;;;;;14.63;13.23;;;;;;;;;;5074829;28;20376;-85
2023/01/22 04:10:44;;;;;;;15.02;13.52;;;;;;;;;;5075094;28;20736;-84
2023/01/22 04:13:10;;;;;;;15.35;13.75;;;;;;;;;;5074715;28;20395;-84
2023/01/22 04:15:36;;;;;;;14.60;13.20;;;;;;;;;;5074559;28;20376;-85
2023/01/22 04:18:03;;;;;;;14.93;13.38;;;;;;;;;;5071493;28;20445;-84
2023/01/22 04:20:28;;;;;;;14.43;13.02;;;;;;;;;;5074417;28;20422;-84
2023/01/22 04:22:54;;;;;;;14.00;12.63;;;;;;;;;;5074399;28;20857;-84
2023/01/22 04:25:20;;;;;;;14.02;12.68;;;;;;;;;;5073521;28;20429;-85
2023/01/22 04:27:47;;;;;;;13.90;12.60;;;;;;;;;;5072884;28;20384;-84
2023/01/22 04:30:13;;;;;;;13.43;12.23;;;;;;;;;;5074232;28;20450;-84
2023/01/22 04:32:39;;;;;;;14.05;12.77;;;;;;;;;;5056543;28;20388;-84
2023/01/22 04:35:05;;;;;;;14.77;13.38;;;;;;;;;;5074179;28;20380;-84
2023/01/22 04:37:31;;;;;;;15.05;13.65;;;;;;;;;;5074248;28;20791;-84
2023/01/22 04:39:57;;;;;;;15.15;13.65;;;;;;;;;;5056444;28;20415;-85
2023/01/22 04:42:23;;;;;;;14.43;13.00;;;;;;;;;;5056666;28;20376;-84
2023/01/22 04:44:49;;;;;;;14.23;12.93;;;;;;;;;;5073872;28;20411;-84
2023/01/22 04:47:15;;;;;;;15.30;13.73;;;;;;;;;;5074215;28;20391;-84
2023/01/22 04:49:41;;;;;;;14.38;13.07;;;;;;;;;;5073892;28;20842;-84
2023/01/22 04:52:07;;;;;;;14.52;13.13;;;;;;;;;;5082168;28;20387;-85
2023/01/22 04:54:33;;;;;;;15.30;13.77;;;;;;;;;;5080535;28;20387;-84
2023/01/22 04:56:59;;;;;;;15.40;13.90;;;;;;;;;;5093457;28;20407;-85
2023/01/22 04:59:25;;;;;;;15.55;13.98;;;;;;;;;;5079664;28;20651;-84
2023/01/22 05:01:51;;;;;;;15.40;13.90;;;;;;;;;;5065822;28;20388;-84
2023/01/22 05:04:17;;;;;;;14.63;13.23;;;;;;;;;;5070937;28;20402;-82
2023/01/22 05:06:43;;;;;;;15.57;13.98;;;;;;;;;;5067256;28;20744;-84
2023/01/22 05:09:10;;;;;;;14.77;13.32;;;;;;;;;;5059499;28;20798;-84
2023/01/22 05:11:35;;;;;;;15.15;13.65;;;;;;;;;;5054467;28;20928;-84
2023/01/22 05:14:01;;;;;;;15.13;13.63;;;;;;;;;;5073950;28;20391;-84
2023/01/22 05:16:27;;;;;;;14.93;13.50;;;;;;;;;;5072952;28;20433;-84
2023/01/22 05:18:53;;;;;;;14.35;12.95;;;;;;;;;;5055685;28;20396;-84
2023/01/22 05:21:19;;;;;;;14.15;12.80;;;;;;;;;;5073529;28;20452;-84
2023/01/22 05:23:45;;;;;;;14.77;13.38;;;;;;;;;;5073458;28;20776;-85
2023/01/22 05:26:11;;;;;;;15.35;13.85;;;;;;;;;;5072624;28;20383;-84
2023/01/22 05:28:37;;;;;;;15.57;13.98;;;;;;;;;;5049475;28;20404;-84
2023/01/22 05:31:03;;;;;;;14.85;13.38;;;;;;;;;;5062249;28;20464;-84
2023/01/22 05:33:29;;;;;;;14.05;12.63;;;;;;;;;;5054496;28;20398;-84
2023/01/22 05:35:56;;;;;;;14.13;12.77;;;;;;;;;;5054255;28;20960;-85
2023/01/22 05:38:22;;;;;;;14.35;12.95;;;;;;;;;;5073011;28;20391;-85
2023/01/22 05:40:48;;;;;;;13.70;12.47;;;;;;;;;;5072787;28;20403;-85
2023/01/22 05:43:14;;;;;;;13.77;12.48;;;;;;;;;;5072373;28;20380;-85
2023/01/22 05:45:40;;;;;;;14.67;13.20;;;;;;;;;;5072865;28;20853;-85
2023/01/22 05:48:06;;;;;;;13.55;12.27;;;;;;;;;;5054590;28;20398;-85
2023/01/22 05:50:32;;;;;;;14.10;12.70;;;;;;;;;;5054833;28;20425;-85
2023/01/22 05:52:58;;;;;;;14.93;13.38;;;;;;;;;;5072899;28;20391;-85
2023/01/22 05:55:24;;;;;;;14.60;13.13;;;;;;;;;;5072656;28;20388;-84
2023/01/22 05:57:50;;;;;;;14.65;13.27;;;;;;;;;;5072840;28;20387;-84
2023/01/22 06:00:16;;;;;;;13.77;12.48;;;;;;;;;;5046070;28;20950;-85
2023/01/22 06:02:43;;;;;;;14.10;12.80;;;;;;;;;;5056287;28;20380;-84
2023/01/22 06:05:09;;;;;;;13.85;12.55;;;;;;;;;;5071236;28;20450;-85
2023/01/22 06:07:36;;;;;;;14.07;12.75;;;;;;;;;;5072045;28;21588;-84
2023/01/22 06:10:03;;;;;;;14.10;12.57;;;;;;;;;;5072476;28;20391;-84
2023/01/22 06:12:29;;;;;;;14.27;12.87;;;;;;;;;;5073418;28;20464;-85
2023/01/22 06:14:55;;;;;;;14.57;13.18;;;;;;;;;;5072490;28;20985;-84
2023/01/22 06:17:21;;;;;;;16.38;14.77;;;;;;;;;;5072545;28;20779;-85
2023/01/22 06:19:47;;;;;;;14.55;13.25;;;;;;;;;;5072050;28;20407;-85
2023/01/22 06:22:13;;;;;;;14.13;12.75;;;;;;;;;;5072391;28;20384;-85
2023/01/22 06:24:39;;;;;;;13.25;11.95;;;;;;;;;;5071284;28;20368;-85
2023/01/22 06:27:05;;;;;;;13.18;11.98;;;;;;;;;;5069468;28;20379;-84
2023/01/22 06:29:31;;;;;;;15.03;13.63;;;;;;;;;;5072267;28;20825;-85
2023/01/22 06:31:57;;;;;;;14.68;13.27;;;;;;;;;;5072236;28;20383;-85
2023/01/22 06:34:23;;;;;;;14.47;13.07;;;;;;;;;;5071989;28;20384;-85
2023/01/22 06:36:49;;;;;;;14.38;13.07;;;;;;;;;;5069494;28;20777;-85
2023/01/22 06:39:15;;;;;;;15.27;13.80;;;;;;;;;;5072027;28;20408;-85
2023/01/22 06:41:41;;;;;;;15.43;13.95;;;;;;;;;;5072329;28;20455;-85
2023/01/22 06:44:07;;;;;;;14.65;13.25;;;;;;;;;;5072213;28;20932;-85
2023/01/22 06:46:33;;;;;;;14.13;12.82;;;;;;;;;;5072224;28;20376;-85
2023/01/22 06:49:01;;;;;;;14.48;13.18;;;;;;;;;;5072675;28;20383;-85
2023/01/22 06:51:28;;;;;;;14.60;13.27;;;;;;;;;;5071373;28;20422;-85
2023/01/22 06:53:54;;;;;;;14.63;13.13;;;;;;;;;;5071975;28;20379;-85
2023/01/22 06:56:20;;;;;;;15.15;13.75;;;;;;;;;;5071567;28;20380;-85
2023/01/22 06:58:46;;;;;;;15.77;14.17;;;;;;;;;;5059069;28;20404;-85
2023/01/22 07:01:12;;;;;;;16.08;14.63;;;;;;;;;;5072041;28;20418;-85
2023/01/22 07:03:38;;;;;;;15.83;14.27;;;;;;;;;;5071232;28;20379;-85
2023/01/22 07:06:05;;;;;;;17.08;15.38;;;;;;;;;;5070565;28;20891;-85
2023/01/22 07:08:31;;;;;;;17.52;15.75;;;;;;;;;;5060641;28;20384;-82
2023/01/22 07:10:58;;;;;;;16.48;14.88;;;;;;;;;;5074337;28;20384;-82
2023/01/22 07:13:24;;;;;;;14.80;13.40;;;;;;;;;;5052493;28;20446;-83
2023/01/22 07:15:50;;;;;;;14.93;13.57;;;;;;;;;;5071841;28;20392;-82
2023/01/22 07:18:18;;;;;;;15.35;13.80;;;;;;;;;;5071740;28;20482;-81
2023/01/22 07:20:46;;;;;;;14.85;13.45;;;;;;;;;;5071362;28;20810;-82
2023/01/22 07:23:12;;;;;;;14.90;13.50;;;;;;;;;;5076946;28;20414;-81
2023/01/22 07:25:38;;;;;;;14.88;13.48;;;;;;;;;;5076995;28;20396;-81
2023/01/22 07:28:06;;;;;;;15.83;14.33;;;;;;;;;;5065481;28;20431;-80
2023/01/22 07:30:33;;;;;;;16.50;14.90;;;;;;;;;;5055039;28;20387;-81
2023/01/22 07:33:02;;;;;;;17.83;15.70;;;;;;;;;;5070498;28;20388;-82
2023/01/22 07:35:29;;;;;;;23.65;18.63;;;;;;;;;;5070945;28;20420;-81
2023/01/22 07:37:55;;;;;;;21.58;18.65;;;;;;;;;;5070969;28;20482;-81
2023/01/22 07:40:23;;;;;;;17.70;15.90;;;;;;;;;;5073756;28;20504;-81
2023/01/22 07:42:50;;;;;;;17.38;15.68;;;;;;;;;;5075077;28;20407;-82
2023/01/22 07:45:19;;;;;;;21.52;18.35;;;;;;;;;;5070521;28;20760;-82
2023/01/22 07:47:55;;;;;;;18.15;16.20;;;;;;;;;;5060695;28;20741;-82
2023/01/22 07:50:22;;;;;;;18.90;17.00;;;;;;;;;;5074444;28;20467;-82
2023/01/22 07:52:48;;;;;;;17.60;15.80;;;;;;;;;;5075084;28;20857;-83
2023/01/22 07:55:14;;;;;;;16.50;14.80;;;;;;;;;;5074297;28;20480;-81
2023/01/22 07:57:41;;;;;;;17.00;14.63;;;;;;;;;;5075302;28;20380;-82
2023/01/22 08:00:09;;;;;;;17.15;15.45;;;;;;;;;;5069973;28;20434;-81
2023/01/22 08:02:35;;;;;;;16.13;14.55;;;;;;;;;;5072037;28;20467;-82
2023/01/22 08:05:01;;;;;;;15.20;13.70;;;;;;;;;;5074218;28;20772;-82
2023/01/22 08:07:29;;;;;;;16.43;14.73;;;;;;;;;;5073835;28;20466;-82
2023/01/22 08:09:55;;;;;;;14.80;13.40;;;;;;;;;;5074282;28;20375;-82
2023/01/22 08:12:21;;;;;;;17.23;15.63;;;;;;;;;;5074230;28;20756;-82
2023/01/22 08:14:47;;;;;;;17.15;15.45;;;;;;;;;;5073392;28;20429;-82
2023/01/22 08:17:13;;;;;;;17.23;15.52;;;;;;;;;;5074783;28;20388;-82
2023/01/22 08:19:39;;;;;;;16.85;15.35;;;;;;;;;;5074388;28;20421;-82
2023/01/22 08:22:05;;;;;;;17.13;15.32;;;;;;;;;;5074492;28;20840;-82
2023/01/22 08:24:33;;;;;;;17.92;16.23;;;;;;;;;;5074813;28;20402;-82
2023/01/22 08:26:59;;;;;;;16.17;14.57;;;;;;;;;;5087110;28;20375;-82
2023/01/22 08:29:25;;;;;;;14.43;13.03;;;;;;;;;;5084561;28;20376;-82
2023/01/22 08:31:52;;;;;;;14.30;13.00;;;;;;;;;;5081839;28;20761;-80
2023/01/22 08:34:18;;;;;;;17.77;15.88;;;;;;;;;;5080946;28;20441;-81
2023/01/22 08:36:44;;;;;;;14.40;13.05;;;;;;;;;;5083393;28;20423;-82
2023/01/22 08:39:10;;;;;;;14.50;13.15;;;;;;;;;;5077799;28;20769;-82
2023/01/22 08:41:36;;;;;;;12.73;11.52;;;;;;;;;;5074433;28;20463;-82
2023/01/22 08:44:02;;;;;;;15.33;13.87;;;;;;;;;;5074270;28;20466;-82
2023/01/22 08:46:28;;;;;;;14.05;12.75;;;;;;;;;;5074246;28;20805;-83
2023/01/22 08:48:54;;;;;;;13.70;12.40;;;;;;;;;;5073925;28;20383;-82
2023/01/22 08:51:22;;;;;;;16.08;14.43;;;;;;;;;;5074067;28;20459;-82
2023/01/22 08:53:48;;;;;;;14.95;13.55;;;;;;;;;;5073863;28;20868;-82
2023/01/22 08:56:14;;;;;;;13.02;11.77;;;;;;;;;;5067820;28;20738;-82
2023/01/22 08:58:40;;;;;;;13.90;12.60;;;;;;;;;;5055215;28;20394;-82
2023/01/22 09:01:06;;;;;;;12.57;11.38;;;;;;;;;;5073310;28;20407;-82
2023/01/22 09:03:32;;;;;;;14.73;13.23;;;;;;;;;;5072936;28;20619;-82
2023/01/22 09:05:58;;;;;;;13.60;12.32;;;;;;;;;;5073059;28;20903;-83
2023/01/22 09:08:24;;;;;;;13.40;12.13;;;;;;;;;;5076095;28;20743;-82
2023/01/22 09:10:50;;;;;;;14.45;12.95;;;;;;;;;;5055895;28;20922;-82
2023/01/22 09:13:16;;;;;;;12.38;11.18;;;;;;;;;;5073529;28;20379;-82
2023/01/22 09:15:42;;;;;;;11.88;10.77;;;;;;;;;;5075922;28;20375;-82
2023/01/22 09:18:08;;;;;;;12.45;11.25;;;;;;;;;;5073361;28;20386;-82
2023/01/22 09:20:34;;;;;;;12.68;11.57;;;;;;;;;;5072971;28;20495;-82
2023/01/22 09:23:00;;;;;;;14.13;12.75;;;;;;;;;;5073365;28;20407;-82
2023/01/22 09:25:26;;;;;;;13.65;12.40;;;;;;;;;;5073219;28;20860;-80
2023/01/22 09:27:59;;;;;;;12.75;11.45;;;;;;;;;;5073140;28;20376;-82
2023/01/22 09:30:26;;;;;;;12.13;10.93;;;;;;;;;;5073313;28;20740;-82
2023/01/22 09:32:52;;;;;;;12.20;11.10;;;;;;;;;;5073228;28;20380;-82
2023/01/22 09:35:18;;;;;;;11.02;10.07;;;;;;;;;;5072878;28;20887;-82
2023/01/22 09:37:44;;;;;;;10.18;9.30;;;;;;;;;;5073165;28;20384;-82
2023/01/22 09:40:16;;;;;;;11.05;10.05;;;;;;;;;;5072860;28;20396;-82
2023/01/22 09:42:42;;;;;;;10.70;9.80;;;;;;;;;;5073125;28;20470;-82
2023/01/22 09:45:13;;;;;;;11.38;10.38;;;;;;;;;;5073033;28;20379;-82
2023/01/22 09:47:46;;;;;;;11.48;10.40;;;;;;;;;;5055114;28;20420;-83
2023/01/22 09:50:17;;;;;;;11.05;10.13;;;;;;;;;;5072408;28;20470;-80
2023/01/22 09:52:43;;;;;;;10.52;9.63;;;;;;;;;;5054929;28;20866;-81
2023/01/22 09:55:13;;;;;;;11.53;10.50;;;;;;;;;;5054725;28;20395;-81
2023/01/22 09:57:44;;;;;;;11.13;10.13;;;;;;;;;;5072630;28;20494;-81
2023/01/22 10:00:15;;;;;;;11.05;10.15;;;;;;;;;;5063654;28;20404;-81
2023/01/22 10:02:47;;;;;;;11.30;10.30;;;;;;;;;;5068223;28;20371;-81
2023/01/22 10:05:19;;;;;;;11.30;10.30;;;;;;;;;;5053596;28;20483;-81
2023/01/22 10:07:59;;;;;;;10.88;9.88;;;;;;;;;;5072104;28;20411;-81
2023/01/22 10:10:26;;;;;;;11.38;10.27;;;;;;;;;;5071907;28;20459;-81
2023/01/22 10:12:55;;;;;;;11.25;10.20;;;;;;;;;;5072423;28;20814;-81
2023/01/22 10:15:23;;;;;;;10.52;9.63;;;;;;;;;;5072273;28;20420;-81
2023/01/22 10:17:49;;;;;;;10.23;9.33;;;;;;;;;;5054426;28;20856;-81
2023/01/22 10:20:17;;;;;;;9.88;9.02;;;;;;;;;;5072214;28;20461;-81
2023/01/22 10:22:43;;;;;;;10.57;9.57;;;;;;;;;;5072197;28;20380;-81
2023/01/22 10:25:14;;;;;;;10.60;9.65;;;;;;;;;;5072208;28;20404;-81
2023/01/22 10:27:40;;;;;;;9.25;8.43;;;;;;;;;;5073068;28;20376;-81
2023/01/22 10:30:06;;;;;;;8.30;7.60;;;;;;;;;;5058706;28;20873;-81
2023/01/22 10:32:32;;;;;;;7.70;7.03;;;;;;;;;;5065821;28;20430;-81
2023/01/22 10:35:10;;;;;;;8.40;7.60;;;;;;;;;;5067540;28;20385;-81
2023/01/22 10:37:51;;;;;;;8.38;7.68;;;;;;;;;;5069129;28;20383;-81
2023/01/22 10:40:23;;;;;;;8.43;7.63;;;;;;;;;;5063810;28;20407;-81
2023/01/22 10:43:01;;;;;;;9.52;8.70;;;;;;;;;;5072234;28;20382;-81
2023/01/22 10:45:27;;;;;;;7.45;6.75;;;;;;;;;;5055797;28;20391;-80
2023/01/22 10:48:03;;;;;;;8.40;7.70;;;;;;;;;;5072367;28;20391;-81
2023/01/22 10:50:29;;;;;;;8.60;7.90;;;;;;;;;;5072615;28;20391;-81
2023/01/22 10:52:56;;;;;;;8.55;7.85;;;;;;;;;;5072506;28;20382;-80
2023/01/22 10:55:29;;;;;;;8.80;8.02;;;;;;;;;;5073246;28;20428;-81
2023/01/22 10:57:56;;;;;;;8.35;7.65;;;;;;;;;;5075013;28;20779;-81
2023/01/22 11:00:26;;;;;;;8.02;7.32;;;;;;;;;;5046523;28;20974;-81
2023/01/22 11:02:52;;;;;;;7.50;6.90;;;;;;;;;;5072960;28;20390;-80
2023/01/22 11:05:20;;;;;;;8.35;7.65;;;;;;;;;;5072262;28;20420;-81
2023/01/22 11:07:47;;;;;;;7.75;7.10;;;;;;;;;;5073390;28;20433;-81
2023/01/22 11:10:19;;;;;;;8.30;7.60;;;;;;;;;;5071377;28;20379;-81
2023/01/22 11:12:57;;;;;;;8.27;7.57;;;;;;;;;;5072292;28;20459;-81
2023/01/22 11:15:23;;;;;;;7.85;7.15;;;;;;;;;;5078166;28;20388;-81
2023/01/22 11:17:54;;;;;;;7.90;7.25;;;;;;;;;;5076303;28;20709;-81
2023/01/22 11:20:25;;;;;;;8.00;7.40;;;;;;;;;;5076259;28;20477;-81
2023/01/22 11:23:14;;;;;;;7.88;7.28;;;;;;;;;;5077147;28;20856;-81
2023/01/22 11:25:59;;;;;;;8.07;7.40;;;;;;;;;;5058050;28;20387;-81
2023/01/22 11:28:40;;;;;;;7.63;7.03;;;;;;;;;;5059372;28;20383;-81
2023/01/22 11:31:17;;;;;;;7.18;6.57;;;;;;;;;;5089608;28;20405;-81
2023/01/22 11:33:52;;;;;;;7.95;7.25;;;;;;;;;;5076466;28;20406;-81
2023/01/22 11:36:21;;;;;;;7.43;6.55;;;;;;;;;;5058225;28;20398;-81
2023/01/22 11:38:50;;;;;;;7.38;6.78;;;;;;;;;;5068138;28;20371;-81
2023/01/22 11:41:46;;;;;;;7.72;7.03;;;;;;;;;;5077839;28;20417;-81
2023/01/22 11:44:24;;;;;;;7.60;6.90;;;;;;;;;;5060049;28;20380;-81
2023/01/22 11:46:56;;;;;;;7.53;6.93;;;;;;;;;;5075722;28;20416;-81
2023/01/22 11:49:22;;;;;;;7.18;6.57;;;;;;;;;;5075477;28;20380;-81
2023/01/22 11:52:09;;;;;;;7.30;6.70;;;;;;;;;;5081698;28;20385;-81
2023/01/22 11:54:58;;;;;;;6.70;6.20;;;;;;;;;;5081584;28;20383;-81
2023/01/22 11:57:36;;;;;;;7.23;6.67;;;;;;;;;;5057046;28;20442;-81
2023/01/22 12:00:17;;;;;;;7.20;6.60;;;;;;;;;;5073744;28;20421;-81
2023/01/22 12:02:43;;;;;;;6.23;5.73;;;;;;;;;;5071767;28;20370;-80
2023/01/22 12:05:12;;;;;;;6.93;6.43;;;;;;;;;;5095098;28;20411;-80
2023/01/22 12:07:44;;;;;;;7.07;6.50;;;;;;;;;;5071377;28;20391;-81
2023/01/22 12:10:13;;;;;;;6.38;5.88;;;;;;;;;;5077266;28;20460;-81
2023/01/22 12:12:40;;;;;;;6.40;5.90;;;;;;;;;;5066069;28;20376;-82
2023/01/22 12:15:16;;;;;;;7.78;7.07;;;;;;;;;;5075345;28;20888;-81
2023/01/22 12:17:42;;;;;;;7.88;7.28;;;;;;;;;;5074915;28;20406;-82
2023/01/22 12:20:19;;;;;;;7.10;6.50;;;;;;;;;;5074950;28;20756;-82
2023/01/22 12:22:50;;;;;;;5.80;5.40;;;;;;;;;;5074855;28;20379;-81
2023/01/22 12:25:35;;;;;;;5.40;5.00;;;;;;;;;;5054245;28;20389;-81
2023/01/22 12:28:04;;;;;;;4.97;4.57;;;;;;;;;;5074819;28;20375;-82
2023/01/22 12:30:45;;;;;;;5.45;5.05;;;;;;;;;;5074795;28;20407;-81
2023/01/22 12:33:17;;;;;;;5.22;4.82;;;;;;;;;;5056658;28;20379;-82
2023/01/22 12:35:43;;;;;;;4.72;4.43;;;;;;;;;;5056656;28;20844;-82
2023/01/22 12:38:18;;;;;;;6.03;4.95;;;;;;;;;;5056621;28;20956;-82
2023/01/22 12:41:02;;;;;;;5.72;4.60;;;;;;;;;;5070918;28;20884;-82
2023/01/22 12:43:35;;;;;;;4.68;4.28;;;;;;;;;;5074311;28;20861;-81
2023/01/22 12:46:30;;;;;;;5.30;4.90;;;;;;;;;;5074204;28;20849;-82
2023/01/22 12:49:06;;;;;;;5.10;4.60;;;;;;;;;;5039791;28;20380;-87
2023/01/22 12:51:35;;;;;;;4.53;4.23;;;;;;;;;;5073685;28;20454;-85
2023/01/22 12:54:21;;;;;;;6.15;4.63;;;;;;;;;;5073966;28;20380;-87
2023/01/22 12:56:48;;;;;;;5.05;4.65;;;;;;;;;;5073757;28;20381;-86
2023/01/22 12:59:47;;;;;;;5.88;4.82;;;;;;;;;;5068395;28;20409;-85
2023/01/22 13:02:34;;;;;;;5.90;5.40;;;;;;;;;;5038071;28;20395;-87
2023/01/22 13:05:23;;;;;;;11.00;6.93;;;;;;;;;;5071041;28;20407;-88
2023/01/22 13:08:00;;;;;;;7.22;6.65;;;;;;;;;;5060952;28;20392;-88
2023/01/22 13:10:28;;;;;;;7.10;6.50;;;;;;;;;;5074462;28;20480;-87
2023/01/22 13:12:56;;;;;;;8.13;6.30;;;;;;;;;;5073840;28;20737;-88
2023/01/22 13:15:24;;;;;;;8.05;7.35;;;;;;;;;;5073121;28;20384;-87
2023/01/22 13:18:03;;;;;;;15.02;7.60;;;;;;;;;;5073500;28;20423;-88
2023/01/22 13:20:33;;;;;;;7.97;7.37;;;;;;;;;;5053493;28;20449;-87
2023/01/22 13:23:00;;;;;;;8.10;7.32;;;;;;;;;;5041573;28;20406;-87
2023/01/22 13:25:31;;;;;;;7.32;6.72;;;;;;;;;;5052378;28;20388;-89
2023/01/22 13:27:57;;;;;;;7.65;6.93;;;;;;;;;;5072738;28;20387;-87
2023/01/22 13:30:25;;;;;;;7.25;6.65;;;;;;;;;;5075260;28;20518;-87
2023/01/22 13:33:02;;;;;;;7.50;6.90;;;;;;;;;;5072561;28;20911;-87
2023/01/22 13:35:28;;;;;;;8.33;7.47;;;;;;;;;;5054789;28;20546;-88
2023/01/22 13:37:53;;;;;;;7.80;7.20;;;;;;;;;;5042449;28;20404;-88
2023/01/22 13:40:22;;;;;;;8.00;7.25;;;;;;;;;;5064588;28;20405;-90
2023/01/22 13:42:49;;;;;;;7.03;6.43;;;;;;;;;;5051885;28;20376;-89
2023/01/22 13:45:16;;;;;;;7.25;6.65;;;;;;;;;;5067576;28;20461;-88
2023/01/22 13:47:42;;;;;;;8.18;7.10;;;;;;;;;;5065869;28;20443;-90
2023/01/22 13:50:18;;;;;;;7.18;6.47;;;;;;;;;;5074843;28;20856;-87
2023/01/22 13:52:44;;;;;;;10.10;6.40;;;;;;;;;;5071621;28;20440;-90
2023/01/22 13:55:15;;;;;;;6.28;5.70;;;;;;;;;;5096692;22;20426;-88
2023/01/22 13:58:06;;;;;;;5.88;5.38;;;;;;;;;;5100188;28;20902;-91
2023/01/22 14:01:07;;;;;;;5.93;5.43;;;;;;;;;;5027548;28;20501;-92
2023/01/22 14:03:56;;;;;;;5.20;4.80;;;;;;;;;;4985574;28;20388;-92
2023/01/22 14:06:25;;;;;;;9.50;5.57;;;;;;;;;;5070986;28;20710;-89
2023/01/22 14:08:52;;;;;;;5.68;4.95;;;;;;;;;;5093432;28;20389;-90
2023/01/22 14:11:19;;;;;;;6.57;5.13;;;;;;;;;;5083980;28;20388;-91
2023/01/22 14:14:08;;;;;;;5.78;4.80;;;;;;;;;;5090682;28;20467;-93
2023/01/22 14:16:40;;;;;;;7.57;6.70;;;;;;;;;;4994351;28;20396;-91
2023/01/22 14:19:34;;;;;;;5.60;4.83;;;;;;;;;;5087422;28;20385;-92
2023/01/22 14:22:05;;;;;;;12.32;11.13;;;;;;;;;;5080426;28;20387;-89
2023/01/22 14:24:31;;;;;;;6.22;5.72;;;;;;;;;;5078124;28;20461;-86
2023/01/22 14:26:57;;;;;;;18.90;16.92;;;;;;;;;;5095624;28;20855;-87
2023/01/22 14:29:23;;;;;;;13.70;12.00;;;;;;;;;;5093898;28;20970;-87
2023/01/22 14:31:49;;;;;;;6.85;6.25;;;;;;;;;;5091547;28;20430;-87
2023/01/22 14:34:15;;;;;;;8.48;7.65;;;;;;;;;;5088219;28;20404;-88
2023/01/22 14:36:46;;;;;;;9.15;8.18;;;;;;;;;;5080331;28;20378;-89
2023/01/22 14:39:12;;;;;;;6.85;6.25;;;;;;;;;;5093766;28;20374;-88
2023/01/22 14:41:38;;;;;;;13.07;11.90;;;;;;;;;;5092398;28;20735;-88